Time;durP1;ratioP1;P1;durP2;ratioP2;P2;SDS_P1;SDS_P2;PMS_P1;PMS_P2;Temp;Humidity;BMP_temperature;BMP_pressure;BME280_temperature;BME280_humidity;BME280_pressure;Samples;Min_cycle;Max_cycle;Signal;HPM_P1;HPM_P2
2022/07/26 00:00:47;;;;;;;1999.90;999.90;;;17.70;99.90;;;;;;5071015;28;20194;-60
2022/07/26 00:03:14;;;;;;;1999.90;999.90;;;17.60;99.90;;;;;;5070348;28;20205;-59
2022/07/26 00:05:42;;;;;;;1999.90;999.90;;;17.70;99.90;;;;;;5070473;28;20203;-59
2022/07/26 00:08:12;;;;;;;1999.90;999.90;;;17.60;99.90;;;;;;5070654;28;20196;-59
2022/07/26 00:10:41;;;;;;;1999.90;999.90;;;17.70;99.90;;;;;;5070376;28;20201;-60
2022/07/26 00:13:08;;;;;;;1999.90;999.90;;;17.80;99.90;;;;;;5070636;28;20203;-59
2022/07/26 00:15:37;;;;;;;1999.90;999.90;;;17.80;99.90;;;;;;5070516;28;20210;-59
2022/07/26 00:18:05;;;;;;;1999.90;999.90;;;17.80;99.90;;;;;;5070305;28;20730;-59
2022/07/26 00:20:32;;;;;;;1999.90;999.90;;;17.80;99.90;;;;;;5070660;28;20202;-59
2022/07/26 00:23:00;;;;;;;1999.90;999.90;;;17.80;99.90;;;;;;5070469;28;20209;-59
2022/07/26 00:25:27;;;;;;;1999.90;999.90;;;17.90;99.90;;;;;;5070356;28;20560;-60
2022/07/26 00:27:54;;;;;;;1999.90;999.90;;;17.80;99.90;;;;;;5070161;28;20576;-59
2022/07/26 00:30:22;;;;;;;1999.90;999.90;;;17.80;99.90;;;;;;5070087;28;20584;-59
2022/07/26 00:32:51;;;;;;;1999.90;999.90;;;17.80;99.90;;;;;;5070497;28;20203;-59
2022/07/26 00:35:18;;;;;;;1999.90;999.90;;;17.80;99.90;;;;;;5070467;28;20198;-59
2022/07/26 00:37:46;;;;;;;1999.90;999.90;;;17.80;99.90;;;;;;5070091;28;20242;-59
2022/07/26 00:40:13;;;;;;;1999.90;999.90;;;17.80;99.90;;;;;;5070327;28;20200;-59
2022/07/26 00:42:41;;;;;;;1999.90;999.90;;;17.80;99.90;;;;;;5070379;28;20255;-59
2022/07/26 00:45:10;;;;;;;1999.90;999.90;;;17.80;99.90;;;;;;5072228;28;20203;-59
2022/07/26 00:47:37;;;;;;;1999.90;999.90;;;17.80;99.90;;;;;;5073698;28;20201;-59
2022/07/26 00:50:09;;;;;;;1999.90;999.90;;;17.80;99.90;;;;;;5073921;28;20228;-59
2022/07/26 00:52:36;;;;;;;1999.90;999.90;;;17.80;99.90;;;;;;5073578;28;20653;-60
2022/07/26 00:55:03;;;;;;;1999.90;999.90;;;17.80;99.90;;;;;;5073615;28;20195;-59
2022/07/26 00:57:31;;;;;;;1999.90;999.90;;;17.90;99.90;;;;;;5073440;28;20205;-59
2022/07/26 00:59:59;;;;;;;1999.90;999.90;;;17.90;99.90;;;;;;5074209;28;20675;-59
2022/07/26 01:02:27;;;;;;;1999.90;999.90;;;17.90;99.90;;;;;;5074852;28;20723;-59
2022/07/26 01:04:54;;;;;;;1999.90;999.90;;;17.90;99.90;;;;;;5075092;28;20193;-59
2022/07/26 01:07:22;;;;;;;1999.90;999.90;;;17.90;99.90;;;;;;5075070;28;20205;-59
2022/07/26 01:09:49;;;;;;;1999.90;999.90;;;17.90;99.90;;;;;;5074724;28;20687;-60
2022/07/26 01:12:17;;;;;;;1999.90;999.90;;;17.80;99.90;;;;;;5074407;28;20225;-59
2022/07/26 01:14:44;;;;;;;1999.90;999.90;;;17.70;99.90;;;;;;5074922;28;20193;-59
2022/07/26 01:17:12;;;;;;;1999.90;999.90;;;17.70;99.90;;;;;;5074937;28;20200;-59
2022/07/26 01:19:39;;;;;;;1999.90;999.90;;;17.60;99.90;;;;;;5074491;28;20204;-59
2022/07/26 01:22:07;;;;;;;1999.90;999.90;;;17.60;99.90;;;;;;5074757;28;20210;-59
2022/07/26 01:24:35;;;;;;;1999.90;999.90;;;17.60;99.90;;;;;;5074451;28;20677;-59
2022/07/26 01:27:02;;;;;;;1999.90;999.90;;;17.60;99.90;;;;;;5074659;28;20204;-60
2022/07/26 01:29:29;;;;;;;1999.90;999.90;;;17.60;99.90;;;;;;5074334;28;20199;-60
2022/07/26 01:31:56;;;;;;;1999.90;999.90;;;17.60;99.90;;;;;;5074245;28;20213;-59
2022/07/26 01:34:23;;;;;;;1999.90;999.90;;;17.70;99.90;;;;;;5074238;28;20567;-59
2022/07/26 01:36:50;;;;;;;1999.90;999.90;;;17.80;99.90;;;;;;5074617;28;20196;-59
2022/07/26 01:39:20;;;;;;;1999.90;999.90;;;17.80;99.90;;;;;;5074036;28;20266;-59
2022/07/26 01:41:47;;;;;;;1999.90;999.90;;;17.70;99.90;;;;;;5074008;28;20553;-59
2022/07/26 01:44:14;;;;;;;1999.90;999.90;;;17.80;99.90;;;;;;5074341;28;20556;-59
2022/07/26 01:46:41;;;;;;;1999.90;999.90;;;17.70;99.90;;;;;;5074326;28;20196;-59
2022/07/26 01:49:08;;;;;;;1999.90;999.90;;;17.70;99.90;;;;;;5074294;28;20196;-59
2022/07/26 01:51:35;;;;;;;1999.90;999.90;;;17.60;99.90;;;;;;5074071;28;20212;-59
2022/07/26 01:54:02;;;;;;;1999.90;999.90;;;17.60;99.90;;;;;;5074141;28;20204;-60
2022/07/26 01:56:31;;;;;;;1999.90;999.90;;;17.50;99.90;;;;;;5074011;28;20212;-59
2022/07/26 01:58:58;;;;;;;1999.90;999.90;;;17.40;99.90;;;;;;5073808;28;20203;-59
2022/07/26 02:01:25;;;;;;;1999.90;999.90;;;17.40;99.90;;;;;;5074026;28;20191;-59
2022/07/26 02:03:52;;;;;;;1999.90;999.90;;;17.30;99.90;;;;;;5073948;28;20241;-59
2022/07/26 02:06:19;;;;;;;1999.90;999.90;;;17.40;99.90;;;;;;5073932;28;20200;-59
2022/07/26 02:08:46;;;;;;;1999.90;999.90;;;17.30;99.90;;;;;;5073835;28;20196;-59
2022/07/26 02:11:13;;;;;;;1999.90;999.90;;;17.30;99.90;;;;;;5073619;28;20557;-60
2022/07/26 02:13:42;;;;;;;1999.90;999.90;;;17.40;99.90;;;;;;5073462;28;20563;-59
2022/07/26 02:16:11;;;;;;;1999.90;999.90;;;17.40;99.90;;;;;;5073711;28;20198;-59
2022/07/26 02:18:39;;;;;;;1999.90;999.90;;;17.30;99.90;;;;;;5072017;28;20681;-59
2022/07/26 02:21:07;;;;;;;1999.90;999.90;;;17.40;99.90;;;;;;5072011;28;20574;-59
2022/07/26 02:23:34;;;;;;;1999.90;999.90;;;17.30;99.90;;;;;;5072094;28;20200;-59
2022/07/26 02:26:01;;;;;;;1999.90;999.90;;;17.40;99.90;;;;;;5072077;28;20532;-60
2022/07/26 02:28:28;;;;;;;1999.90;999.90;;;17.40;99.90;;;;;;5072994;28;20205;-59
2022/07/26 02:30:57;;;;;;;1999.90;999.90;;;17.40;99.90;;;;;;5073034;28;20220;-59
2022/07/26 02:33:24;;;;;;;1999.90;999.90;;;17.40;99.90;;;;;;5072937;28;20202;-59
2022/07/26 02:35:51;;;;;;;1999.90;999.90;;;17.40;99.90;;;;;;5073366;28;20559;-59
2022/07/26 02:38:18;;;;;;;1999.90;999.90;;;17.40;99.90;;;;;;5072952;28;20230;-60
2022/07/26 02:40:45;;;;;;;1999.90;999.90;;;17.40;99.90;;;;;;5073073;28;20253;-59
2022/07/26 02:43:12;;;;;;;1999.90;999.90;;;17.50;99.90;;;;;;5073162;28;20561;-59
2022/07/26 02:45:39;;;;;;;1999.90;999.90;;;17.50;99.90;;;;;;5073093;28;20191;-59
2022/07/26 02:48:08;;;;;;;1999.90;999.90;;;17.40;99.90;;;;;;5072879;28;20205;-59
2022/07/26 02:50:35;;;;;;;1999.90;999.90;;;17.50;99.90;;;;;;5072985;28;20202;-60
2022/07/26 02:53:02;;;;;;;1999.90;999.90;;;17.40;99.90;;;;;;5072628;28;20261;-59
2022/07/26 02:55:30;;;;;;;1999.90;999.90;;;17.50;99.90;;;;;;5072865;28;20197;-60
2022/07/26 02:57:57;;;;;;;1999.90;999.90;;;17.40;99.90;;;;;;5072683;28;20226;-59
2022/07/26 03:00:25;;;;;;;1999.90;999.90;;;17.50;99.90;;;;;;5072903;28;20203;-59
2022/07/26 03:02:53;;;;;;;1999.90;999.90;;;17.50;99.90;;;;;;5072597;28;20530;-59
2022/07/26 03:05:22;;;;;;;1999.90;999.90;;;17.50;99.90;;;;;;5072634;28;20205;-59
2022/07/26 03:07:49;;;;;;;1999.90;999.90;;;17.40;99.90;;;;;;5072333;28;20197;-59
2022/07/26 03:10:16;;;;;;;1999.90;999.90;;;17.40;99.90;;;;;;5072678;28;20211;-59
2022/07/26 03:12:44;;;;;;;1999.90;999.90;;;17.40;99.90;;;;;;5072645;28;20220;-59
2022/07/26 03:15:12;;;;;;;1999.90;999.90;;;17.50;99.90;;;;;;5072417;28;20195;-59
2022/07/26 03:17:39;;;;;;;1999.90;999.90;;;17.40;99.90;;;;;;5072461;28;20223;-59
2022/07/26 03:20:07;;;;;;;1999.90;999.90;;;17.40;99.90;;;;;;5072387;28;20209;-59
2022/07/26 03:22:36;;;;;;;1999.90;999.90;;;17.40;99.90;;;;;;5072221;28;20662;-59
2022/07/26 03:25:03;;;;;;;1999.90;999.90;;;17.40;99.90;;;;;;5072574;28;20201;-60
2022/07/26 03:27:30;;;;;;;1999.90;999.90;;;17.40;99.90;;;;;;5072599;28;20202;-59
2022/07/26 03:29:57;;;;;;;1999.90;999.90;;;17.40;99.90;;;;;;5072552;28;20204;-59
2022/07/26 03:32:24;;;;;;;1999.90;999.90;;;17.50;99.90;;;;;;5072450;28;20224;-59
2022/07/26 03:34:51;;;;;;;1999.90;999.90;;;17.40;99.90;;;;;;5072501;28;20249;-59
2022/07/26 03:37:18;;;;;;;1999.90;999.90;;;17.40;99.90;;;;;;5072037;28;20719;-60
2022/07/26 03:39:47;;;;;;;1999.90;999.90;;;17.40;99.90;;;;;;5072141;28;20180;-59
2022/07/26 03:42:15;;;;;;;1999.90;999.90;;;17.50;99.90;;;;;;5072286;28;20198;-59
2022/07/26 03:44:42;;;;;;;1999.90;999.90;;;17.50;99.90;;;;;;5072016;28;20204;-59
2022/07/26 03:47:09;;;;;;;1999.90;999.90;;;17.50;99.90;;;;;;5072405;28;20198;-59
2022/07/26 03:49:36;;;;;;;1999.90;999.90;;;17.40;99.90;;;;;;5072355;28;20202;-59
2022/07/26 03:52:03;;;;;;;1999.90;999.90;;;17.40;99.90;;;;;;5072190;28;20213;-59
2022/07/26 03:54:30;;;;;;;1999.90;999.90;;;17.40;99.90;;;;;;5072261;28;20235;-59
2022/07/26 03:56:58;;;;;;;1999.90;999.90;;;17.40;99.90;;;;;;5071981;28;20676;-59
2022/07/26 03:59:26;;;;;;;1999.90;999.90;;;17.40;99.90;;;;;;5071936;28;20643;-59
2022/07/26 04:01:53;;;;;;;1999.90;999.90;;;17.40;99.90;;;;;;5072146;28;20193;-59
2022/07/26 04:04:20;;;;;;;1999.90;999.90;;;17.40;99.90;;;;;;5071931;28;20189;-59
2022/07/26 04:06:48;;;;;;;1999.90;999.90;;;17.40;99.90;;;;;;5072212;28;20201;-59
2022/07/26 04:09:15;;;;;;;1999.90;999.90;;;17.50;99.90;;;;;;5072150;28;20207;-59
2022/07/26 04:11:43;;;;;;;1999.90;999.90;;;17.40;99.90;;;;;;5071679;28;20232;-59
2022/07/26 04:14:11;;;;;;;1999.90;999.90;;;17.50;99.90;;;;;;5071820;28;20201;-59
2022/07/26 04:16:38;;;;;;;1999.90;999.90;;;17.50;99.90;;;;;;5072098;28;20199;-60
2022/07/26 04:19:06;;;;;;;1999.90;999.90;;;17.50;99.90;;;;;;5072415;28;20195;-59
2022/07/26 04:21:33;;;;;;;1999.90;999.90;;;17.40;99.90;;;;;;5075698;28;20193;-59
2022/07/26 04:24:00;;;;;;;1999.90;999.90;;;17.40;99.90;;;;;;5075823;28;20206;-59
2022/07/26 04:26:28;;;;;;;1999.90;999.90;;;17.50;99.90;;;;;;5075472;28;20251;-60
2022/07/26 04:28:55;;;;;;;1999.90;999.90;;;17.50;99.90;;;;;;5075428;28;20535;-60
2022/07/26 04:31:24;;;;;;;1999.90;999.90;;;17.50;99.90;;;;;;5075287;28;20271;-59
2022/07/26 04:33:51;;;;;;;1999.90;999.90;;;17.40;99.90;;;;;;5075451;28;20199;-59
2022/07/26 04:36:18;;;;;;;1999.90;999.90;;;17.50;99.90;;;;;;5075537;28;20194;-59
2022/07/26 04:38:45;;;;;;;1999.90;999.90;;;17.50;99.90;;;;;;5075262;28;20270;-59
2022/07/26 04:41:13;;;;;;;1999.90;999.90;;;17.50;99.90;;;;;;5075116;28;20719;-59
2022/07/26 04:43:40;;;;;;;1999.90;999.90;;;17.50;99.90;;;;;;5075576;28;20199;-59
2022/07/26 04:46:07;;;;;;;1999.90;999.90;;;17.50;99.90;;;;;;5075458;28;20204;-59
2022/07/26 04:48:36;;;;;;;1999.90;999.90;;;17.50;99.90;;;;;;5075145;28;20198;-59
2022/07/26 04:51:04;;;;;;;1999.90;999.90;;;17.50;99.90;;;;;;5075303;28;20252;-59
2022/07/26 04:53:31;;;;;;;1999.90;999.90;;;17.50;99.90;;;;;;5075134;28;20206;-60
2022/07/26 04:55:58;;;;;;;1999.90;999.90;;;17.50;99.90;;;;;;5075310;28;20202;-59
2022/07/26 04:58:25;;;;;;;1999.90;999.90;;;17.50;99.90;;;;;;5075256;28;20551;-59
2022/07/26 05:00:52;;;;;;;1999.90;999.90;;;17.50;99.90;;;;;;5074904;28;20670;-59
2022/07/26 05:03:20;;;;;;;1999.90;999.90;;;17.50;99.90;;;;;;5075227;28;20199;-59
2022/07/26 05:05:49;;;;;;;1999.90;999.90;;;17.40;99.90;;;;;;5075098;28;20202;-59
2022/07/26 05:08:16;;;;;;;1999.90;999.90;;;17.50;99.90;;;;;;5075072;28;20204;-59
2022/07/26 05:10:43;;;;;;;1999.90;999.90;;;17.50;99.90;;;;;;5074850;28;20552;-59
2022/07/26 05:13:10;;;;;;;1999.90;999.90;;;17.50;99.90;;;;;;5074924;28;20569;-59
2022/07/26 05:15:38;;;;;;;1999.90;999.90;;;17.50;99.90;;;;;;5074945;28;20213;-59
2022/07/26 05:18:07;;;;;;;1999.90;999.90;;;17.50;99.90;;;;;;5074897;28;20194;-59
2022/07/26 05:20:35;;;;;;;1999.90;999.90;;;17.60;99.90;;;;;;5073723;28;20205;-59
2022/07/26 05:23:04;;;;;;;1999.90;999.90;;;17.60;99.90;;;;;;5074423;28;20193;-59
2022/07/26 05:25:31;;;;;;;1999.90;999.90;;;17.60;99.90;;;;;;5074729;28;20207;-60
2022/07/26 05:27:58;;;;;;;1999.90;999.90;;;17.60;99.90;;;;;;5074800;28;20199;-59
2022/07/26 05:30:25;;;;;;;1999.90;999.90;;;17.60;99.90;;;;;;5074174;28;20209;-59
2022/07/26 05:32:53;;;;;;;1999.90;999.90;;;17.70;99.90;;;;;;5073873;28;20286;-59
2022/07/26 05:35:20;;;;;;;1999.90;999.90;;;17.70;99.90;;;;;;5074072;28;20231;-59
2022/07/26 05:37:47;;;;;;;1999.90;999.90;;;17.70;99.90;;;;;;5074308;28;20224;-59
2022/07/26 05:40:16;;;;;;;1999.90;999.90;;;17.80;99.90;;;;;;5074311;28;20248;-59
2022/07/26 05:42:43;;;;;;;1999.90;999.90;;;17.80;99.90;;;;;;5074027;28;20211;-59
2022/07/26 05:45:11;;;;;;;1999.90;999.90;;;17.80;99.90;;;;;;5074432;28;20202;-59
2022/07/26 05:47:38;;;;;;;1999.90;999.90;;;17.80;99.90;;;;;;5074023;28;20207;-59
2022/07/26 05:50:06;;;;;;;1999.90;999.90;;;17.80;99.90;;;;;;5073918;28;20224;-59
2022/07/26 05:52:33;;;;;;;1999.90;999.90;;;17.90;99.90;;;;;;5073628;28;20215;-59
2022/07/26 05:55:00;;;;;;;1999.90;999.90;;;17.90;99.90;;;;;;5073875;28;20694;-60
2022/07/26 05:57:29;;;;;;;1999.90;999.90;;;17.90;99.90;;;;;;5073545;28;20201;-60
2022/07/26 05:59:56;;;;;;;1999.90;999.90;;;17.90;99.90;;;;;;5074047;28;20195;-60
2022/07/26 06:02:23;;;;;;;1999.90;999.90;;;18.00;99.90;;;;;;5073661;28;20202;-60
2022/07/26 06:04:50;;;;;;;1999.90;999.90;;;18.00;99.90;;;;;;5073994;28;20194;-59
2022/07/26 06:07:17;;;;;;;1999.90;999.90;;;18.00;99.90;;;;;;5073559;28;20197;-59
2022/07/26 06:09:44;;;;;;;1999.90;999.90;;;18.00;99.90;;;;;;5073673;28;20206;-59
2022/07/26 06:12:11;;;;;;;1999.90;999.90;;;18.00;99.90;;;;;;5072787;28;20222;-60
2022/07/26 06:14:40;;;;;;;1999.90;999.90;;;18.10;99.90;;;;;;5073728;28;20209;-59
2022/07/26 06:17:07;;;;;;;1999.90;999.90;;;18.10;99.90;;;;;;5073292;28;20660;-59
2022/07/26 06:19:34;;;;;;;1999.90;999.90;;;18.20;99.90;;;;;;5073404;28;20676;-59
2022/07/26 06:22:02;;;;;;;1999.90;999.90;;;18.30;99.90;;;;;;5073195;28;20247;-59
2022/07/26 06:24:29;;;;;;;1999.90;999.90;;;18.20;99.90;;;;;;5073628;28;20210;-59
2022/07/26 06:26:56;;;;;;;1999.90;999.90;;;18.30;99.90;;;;;;5073608;28;20199;-60
2022/07/26 06:29:24;;;;;;;1999.90;999.90;;;18.40;99.90;;;;;;5073453;28;20547;-60
2022/07/26 06:31:52;;;;;;;1999.90;999.90;;;18.40;99.90;;;;;;5073062;28;20666;-60
2022/07/26 06:34:19;;;;;;;1999.90;999.90;;;18.50;99.90;;;;;;5073395;28;20197;-60
2022/07/26 06:36:46;;;;;;;1999.90;999.90;;;18.50;99.90;;;;;;5073380;28;20198;-60
2022/07/26 06:39:13;;;;;;;1999.90;999.90;;;18.40;99.90;;;;;;5072878;28;20238;-61
2022/07/26 06:41:40;;;;;;;1999.90;999.90;;;18.40;99.90;;;;;;5072364;28;20730;-61
2022/07/26 06:44:07;;;;;;;1999.90;999.90;;;18.60;99.90;;;;;;5073030;28;20183;-60
2022/07/26 06:46:35;;;;;;;1999.90;999.90;;;18.60;99.90;;;;;;5072874;28;20206;-60
2022/07/26 06:49:04;;;;;;;1999.90;999.90;;;18.70;99.90;;;;;;5072787;28;20194;-60
2022/07/26 06:51:31;;;;;;;1999.90;999.90;;;18.70;99.90;;;;;;5072894;28;20203;-60
2022/07/26 06:53:58;;;;;;;1999.90;999.90;;;19.00;99.90;;;;;;5072981;28;20207;-60
2022/07/26 06:56:25;;;;;;;1999.90;999.90;;;19.10;99.90;;;;;;5072584;28;20195;-61
2022/07/26 06:58:54;;;;;;;1999.90;999.90;;;19.40;99.90;;;;;;5072974;28;20292;-60
2022/07/26 07:01:21;;;;;;;1999.90;999.90;;;19.40;99.90;;;;;;5072885;28;20224;-61
2022/07/26 07:03:48;;;;;;;1999.90;999.90;;;19.40;99.90;;;;;;5072588;28;20194;-60
2022/07/26 07:06:17;;;;;;;1999.90;999.90;;;19.70;99.90;;;;;;5072481;28;20228;-60
2022/07/26 07:08:44;;;;;;;1999.90;999.90;;;19.90;99.90;;;;;;5072730;28;20249;-60
2022/07/26 07:11:11;;;;;;;1999.90;999.90;;;19.80;99.90;;;;;;5072313;28;20560;-60
2022/07/26 07:13:38;;;;;;;1999.90;999.90;;;19.70;99.90;;;;;;5072665;28;20207;-60
2022/07/26 07:16:06;;;;;;;1999.90;999.90;;;20.00;99.90;;;;;;5072675;28;20199;-60
2022/07/26 07:18:33;;;;;;;1999.90;999.90;;;20.90;99.90;;;;;;5072632;28;20201;-60
2022/07/26 07:21:00;;;;;;;1999.90;999.90;;;21.40;99.90;;;;;;5072447;28;20207;-61
2022/07/26 07:23:28;;;;;;;1999.90;999.90;;;21.50;99.90;;;;;;5072559;28;20190;-60
2022/07/26 07:25:55;;;;;;;1999.90;999.90;;;21.50;99.90;;;;;;5072586;28;20201;-61
2022/07/26 07:28:22;;;;;;;1999.90;999.90;;;21.20;99.90;;;;;;5072597;28;20195;-61
2022/07/26 07:30:49;;;;;;;1999.90;999.90;;;21.00;99.90;;;;;;5072211;28;20203;-60
2022/07/26 07:33:17;;;;;;;1999.90;999.90;;;21.10;99.90;;;;;;5072470;28;20215;-60
2022/07/26 07:35:44;;;;;;;1999.90;999.90;;;20.90;99.90;;;;;;5072477;28;20225;-60
2022/07/26 07:38:11;;;;;;;1999.90;999.90;;;21.10;99.90;;;;;;5072143;28;20280;-61
2022/07/26 07:40:39;;;;;;;1999.90;999.90;;;21.10;99.90;;;;;;5072015;28;20203;-60
2022/07/26 07:43:06;;;;;;;1999.90;999.90;;;21.10;99.90;;;;;;5072365;28;20195;-61
2022/07/26 07:45:33;;;;;;;1999.90;999.90;;;21.20;99.90;;;;;;5072334;28;20199;-60
2022/07/26 07:48:01;;;;;;;1999.90;999.90;;;21.20;99.90;;;;;;5072109;28;20202;-60
2022/07/26 07:50:28;;;;;;;1999.90;999.90;;;21.20;99.90;;;;;;5071974;28;20198;-61
2022/07/26 07:52:55;;;;;;;1999.90;999.90;;;21.30;99.90;;;;;;5071746;28;20218;-61
2022/07/26 07:55:22;;;;;;;1999.90;999.90;;;21.10;99.90;;;;;;5076056;28;20553;-61
2022/07/26 07:57:50;;;;;;;1999.90;999.90;;;21.50;99.90;;;;;;5076070;28;20213;-60
2022/07/26 08:00:19;;;;;;;1999.90;999.90;;;21.80;99.90;;;;;;5076005;28;20541;-60
2022/07/26 08:02:46;;;;;;;1999.90;999.90;;;21.90;99.90;;;;;;5076216;28;20194;-61
2022/07/26 08:05:14;;;;;;;1999.90;999.90;;;22.10;99.90;;;;;;5076264;28;20202;-61
2022/07/26 08:07:41;;;;;;;1999.90;999.90;;;22.20;99.90;;;;;;5075794;28;20190;-61
2022/07/26 08:10:09;;;;;;;1999.90;999.90;;;22.00;99.90;;;;;;5076002;28;20197;-61
2022/07/26 08:12:36;;;;;;;1999.90;999.90;;;21.80;99.90;;;;;;5075708;28;20199;-61
2022/07/26 08:15:06;;;;;;;1999.90;999.90;;;21.50;99.90;;;;;;5076020;28;20252;-61
2022/07/26 08:17:33;;;;;;;1999.90;999.90;;;21.50;99.90;;;;;;5075984;28;20191;-61
2022/07/26 08:20:00;;;;;;;1999.90;999.90;;;21.60;99.90;;;;;;5075871;28;20209;-60
2022/07/26 08:22:27;;;;;;;1999.90;999.90;;;21.70;99.90;;;;;;5075725;28;20199;-61
2022/07/26 08:24:54;;;;;;;1999.90;999.90;;;21.30;99.90;;;;;;5075879;28;20205;-61
2022/07/26 08:27:22;;;;;;;1999.90;999.90;;;21.10;99.90;;;;;;5075760;28;20203;-61
2022/07/26 08:29:49;;;;;;;1999.90;999.90;;;21.00;99.90;;;;;;5075783;28;20256;-61
2022/07/26 08:32:17;;;;;;;1999.90;999.90;;;20.90;99.90;;;;;;5075648;28;20201;-60
2022/07/26 08:34:44;;;;;;;1999.90;999.90;;;20.90;99.90;;;;;;5075311;28;20217;-60
2022/07/26 08:37:11;;;;;;;1999.90;999.90;;;21.00;99.90;;;;;;5075189;28;20565;-60
2022/07/26 08:39:38;;;;;;;1999.90;999.90;;;21.20;99.90;;;;;;5075516;28;20183;-61
2022/07/26 08:42:13;;;;;;;1999.90;999.90;;;21.20;99.90;;;;;;5075387;28;20195;-61
2022/07/26 08:44:43;;;;;;;1999.90;999.90;;;21.30;99.90;;;;;;5074751;28;20181;-61
2022/07/26 08:47:12;;;;;;;1999.90;999.90;;;22.30;99.90;;;;;;5075075;28;20187;-61
2022/07/26 08:49:41;;;;;;;1999.90;999.90;;;22.10;99.90;;;;;;5074846;28;20221;-61
2022/07/26 08:52:09;;;;;;;1999.90;999.90;;;21.80;99.90;;;;;;5074452;28;20207;-61
2022/07/26 08:54:37;;;;;;;1999.90;999.90;;;22.40;99.90;;;;;;5074622;28;20210;-61
2022/07/26 08:57:04;;;;;;;1999.90;999.90;;;22.90;99.90;;;;;;5074893;28;20209;-61
2022/07/26 08:59:31;;;;;;;1999.90;999.90;;;23.70;99.90;;;;;;5074871;28;20248;-58
2022/07/26 09:02:00;;;;;;;1999.90;999.90;;;23.30;25.50;;;;;;5074838;28;20201;-59
2022/07/26 09:04:30;;;;;;;1999.90;999.90;;;22.50;99.90;;;;;;5074650;28;20195;-59
2022/07/26 09:07:01;;;;;;;1999.90;999.90;;;23.00;99.90;;;;;;5074596;28;20193;-61
2022/07/26 09:09:29;;;;;;;1999.90;999.90;;;24.30;1.00;;;;;;5075032;28;20210;-59
2022/07/26 09:11:57;;;;;;;1999.90;999.90;;;24.90;1.00;;;;;;5074903;28;20206;-59
2022/07/26 09:14:37;;;;;;;1999.90;999.90;;;25.30;99.90;;;;;;5074494;28;20215;-59
2022/07/26 09:17:04;;;;;;;1999.90;999.90;;;24.90;1.00;;;;;;5074756;28;20181;-59
2022/07/26 09:19:33;;;;;;;1999.90;999.90;;;25.20;1.00;;;;;;5074750;28;20194;-59
2022/07/26 09:22:09;;;;;;;1999.90;999.90;;;26.00;1.00;;;;;;5074726;28;20195;-59
2022/07/26 09:24:39;;;;;;;1999.90;999.90;;;26.60;1.00;;;;;;5074551;28;20648;-60
2022/07/26 09:27:09;;;;;;;1999.90;999.90;;;25.60;99.90;;;;;;5074469;28;20656;-62
2022/07/26 09:29:46;;;;;;;1999.90;999.90;;;25.90;34.90;;;;;;5074621;28;20209;-61
2022/07/26 09:32:16;;;;;;;1999.90;999.90;;;25.70;1.00;;;;;;5074283;28;20228;-61
2022/07/26 09:34:44;;;;;;;1999.90;999.90;;;25.00;99.90;;;;;;5074186;28;20222;-61
2022/07/26 09:37:13;;;;;;;1999.90;999.90;;;25.20;99.90;;;;;;5074320;28;20198;-61
2022/07/26 09:39:54;;;;;;;1999.90;999.90;;;24.80;99.90;;;;;;5074069;28;20191;-60
2022/07/26 09:42:22;;;;;;;1999.90;999.90;;;25.80;1.00;;;;;;5074491;28;20187;-60
2022/07/26 09:44:49;;;;;;;1999.90;999.90;;;26.20;63.40;;;;;;5074005;28;20191;-60
2022/07/26 09:47:17;;;;;;;1999.90;999.90;;;26.30;1.00;;;;;;5074277;28;20199;-59
2022/07/26 09:49:44;;;;;;;1999.90;999.90;;;25.60;99.90;;;;;;5073923;28;20569;-62
2022/07/26 09:52:17;;;;;;;1999.90;999.90;;;24.80;99.90;;;;;;5073854;28;20202;-62
2022/07/26 09:54:46;;;;;;;1999.90;999.90;;;24.00;99.90;;;;;;5073786;28;20210;-60
2022/07/26 09:57:16;;;;;;;1999.90;999.90;;;24.50;99.90;;;;;;5074127;28;20199;-60
2022/07/26 09:59:43;;;;;;;1999.90;999.90;;;24.60;99.90;;;;;;5073763;28;20204;-59
2022/07/26 10:02:12;;;;;;;1999.90;999.90;;;25.10;99.90;;;;;;5073754;28;20205;-59
2022/07/26 10:04:39;;;;;;;1999.90;999.90;;;25.30;1.00;;;;;;5073669;28;20209;-59
2022/07/26 10:07:07;;;;;;;1999.90;999.90;;;25.40;1.00;;;;;;5073573;28;20680;-59
2022/07/26 10:09:42;;;;;;;1999.90;999.90;;;25.20;1.00;;;;;;5073703;28;20205;-59
2022/07/26 10:12:13;;;;;;;1999.90;999.90;;;24.30;99.90;;;;;;5073900;28;20189;-59
2022/07/26 10:14:43;;;;;;;1999.90;999.90;;;24.00;99.90;;;;;;5073739;28;20207;-59
2022/07/26 10:17:46;;;;;;;1999.90;999.90;;;24.50;99.90;;;;;;5072697;28;20176;-59
2022/07/26 10:20:42;;;;;;;1999.90;999.90;;;25.00;99.90;;;;;;5070352;28;20271;-59
2022/07/26 10:23:48;;;;;;;1999.90;999.90;;;24.90;99.90;;;;;;5073472;28;20195;-59
2022/07/26 10:26:39;;;;;;;1999.90;999.90;;;24.60;1.00;;;;;;5071882;28;20195;-59
2022/07/26 10:29:28;;;;;;;1999.90;999.90;;;23.80;99.90;;;;;;5073565;28;20244;-59
2022/07/26 10:32:19;;;;;;;1999.90;999.90;;;23.60;1.00;;;;;;5073521;28;20240;-59
2022/07/26 10:34:46;;;;;;;1999.90;999.90;;;23.50;1.00;;;;;;5073055;28;20541;-59
2022/07/26 10:37:26;;;;;;;1999.90;999.90;;;23.50;99.90;;;;;;5073154;28;20252;-59
2022/07/26 10:40:21;;;;;;;1999.90;999.90;;;23.70;1.00;;;;;;5073234;28;20201;-59
2022/07/26 10:42:50;;;;;;;1999.90;999.90;;;23.80;1.00;;;;;;5073291;28;20183;-60
2022/07/26 10:45:19;;;;;;;1999.90;999.90;;;24.30;1.00;;;;;;5073181;28;20213;-60
2022/07/26 10:48:12;;;;;;;1999.90;999.90;;;24.50;99.90;;;;;;5073158;28;20203;-60
2022/07/26 10:50:40;;;;;;;1999.90;999.90;;;24.10;1.00;;;;;;5072841;28;20543;-60
2022/07/26 10:53:09;;;;;;;1999.90;999.90;;;23.70;43.10;;;;;;5072930;28;20694;-60
2022/07/26 10:55:46;;;;;;;1999.90;999.90;;;24.00;1.00;;;;;;5072614;28;20219;-60
2022/07/26 10:58:15;;;;;;;1999.90;999.90;;;24.30;1.00;;;;;;5072738;28;20182;-60
2022/07/26 11:00:55;;;;;;;1999.90;999.90;;;24.50;99.90;;;;;;5072598;28;20569;-60
2022/07/26 11:03:22;;;;;;;1999.90;999.90;;;25.50;51.70;;;;;;5072939;28;20190;-60
2022/07/26 11:05:50;;;;;;;1999.90;999.90;;;26.20;99.50;;;;;;5072848;28;20187;-60
2022/07/26 11:08:17;;;;;;;1999.90;999.90;;;27.20;1.00;;;;;;5072531;28;20206;-60
2022/07/26 11:10:46;;;;;;;1999.90;999.90;;;28.00;99.90;;;;;;5072321;28;20311;-60
2022/07/26 11:13:17;;;;;;;1999.90;999.90;;;28.80;1.00;;;;;;5072762;28;20210;-60
2022/07/26 11:15:46;;;;;;;1999.90;999.90;;;29.80;99.90;;;;;;5072302;28;20203;-60
2022/07/26 11:18:21;;;;;;;1999.90;999.90;;;29.80;99.90;;;;;;5072377;28;20203;-60
2022/07/26 11:20:51;;;;;;;1999.90;999.90;;;28.60;99.90;;;;;;5072673;28;20178;-60
2022/07/26 11:23:30;;;;;;;1999.90;999.90;;;27.40;1.00;;;;;;5072616;28;20187;-61
2022/07/26 11:26:05;;;;;;;1999.90;999.90;;;27.70;99.90;;;;;;5072641;28;20197;-61
2022/07/26 11:28:49;;;;;;;1999.90;999.90;;;27.20;60.10;;;;;;5072229;28;20183;-61
2022/07/26 11:31:17;;;;;;;1999.90;999.90;;;27.80;1.00;;;;;;5072323;28;20183;-60
2022/07/26 11:33:47;;;;;;;1999.90;999.90;;;27.40;99.90;;;;;;5072391;28;20228;-60
2022/07/26 11:36:15;;;;;;;1999.90;999.90;;;27.50;1.00;;;;;;5072514;28;20179;-60
2022/07/26 11:38:46;;;;;;;1999.90;999.90;;;27.60;1.00;;;;;;5072024;28;20720;-60
2022/07/26 11:41:15;;;;;;;1999.90;999.90;;;27.90;1.00;;;;;;5072293;28;20198;-60
2022/07/26 11:43:42;;;;;;;1999.90;999.90;;;27.30;1.00;;;;;;5072404;28;20214;-60
2022/07/26 11:46:11;;;;;;;1999.90;999.90;;;27.00;1.00;;;;;;5072020;28;20213;-60
2022/07/26 11:48:44;;;;;;;1999.90;999.90;;;26.50;99.90;;;;;;5072054;28;20558;-60
2022/07/26 11:51:12;;;;;;;1999.90;999.90;;;26.00;1.00;;;;;;5071951;28;20187;-60
2022/07/26 11:53:40;;;;;;;1999.90;999.90;;;25.60;1.00;;;;;;5071900;28;20276;-60
2022/07/26 11:56:17;;;;;;;1999.90;999.90;;;25.60;99.90;;;;;;5072005;28;20225;-60
2022/07/26 11:58:46;;;;;;;1999.90;999.90;;;25.70;99.90;;;;;;5071968;28;20633;-60
2022/07/26 12:01:17;;;;;;;1999.90;999.90;;;25.90;99.90;;;;;;5072256;28;20203;-61
2022/07/26 12:03:46;;;;;;;1999.90;999.90;;;26.10;1.00;;;;;;5071947;28;20667;-60
2022/07/26 12:06:16;;;;;;;1999.90;999.90;;;25.40;1.00;;;;;;5071918;28;20199;-60
2022/07/26 12:08:45;;;;;;;1999.90;999.90;;;25.10;1.00;;;;;;5072185;28;20179;-60